Time;durP1;ratioP1;P1;durP2;ratioP2;P2;SDS_P1;SDS_P2;PMS_P1;PMS_P2;Temp;Humidity;BMP_temperature;BMP_pressure;BME280_temperature;BME280_humidity;BME280_pressure;Samples;Min_cycle;Max_cycle;Signal;HPM_P1;HPM_P2
2021/09/04 00:00:23;;;;;;;;;15.75;15.50;;;;;21.28;65.01;101372.19;4915014;28;46081;-76
2021/09/04 00:02:48;;;;;;;;;22.00;22.00;;;;;21.27;64.18;101379.34;4921655;28;45232;-76
2021/09/04 00:05:14;;;;;;;;;27.50;25.50;;;;;21.28;64.59;101370.38;4921902;28;45248;-76
2021/09/04 00:07:39;;;;;;;;;27.50;25.75;;;;;21.28;64.03;101375.72;4921473;28;45352;-76
2021/09/04 00:10:05;;;;;;;;;31.00;26.00;;;;;21.28;64.56;101370.38;4904389;28;45462;-76
2021/09/04 00:12:30;;;;;;;;;32.00;28.75;;;;;21.30;64.32;101378.25;4920890;28;45519;-76
2021/09/04 00:14:56;;;;;;;;;33.00;28.75;;;;;21.27;63.99;101365.97;4908026;28;46144;-76
2021/09/04 00:17:22;;;;;;;;;33.00;30.25;;;;;21.31;64.36;101367.47;4914125;28;45504;-76
2021/09/04 00:19:48;;;;;;;;;28.00;27.75;;;;;21.33;63.87;101362.03;4915143;28;45344;-76
2021/09/04 00:22:13;;;;;;;;;31.00;28.75;;;;;21.35;64.45;101371.66;4904397;28;46122;-78
2021/09/04 00:24:39;;;;;;;;;30.50;27.75;;;;;21.34;64.00;101369.94;4921411;28;45445;-76
2021/09/04 00:27:08;;;;;;;;;33.25;26.50;;;;;21.32;64.38;101365.66;4894014;28;45419;-76
2021/09/04 00:29:35;;;;;;;;;42.00;32.25;;;;;21.32;64.34;101366.50;4915866;28;45302;-76
2021/09/04 00:32:00;;;;;;;;;34.00;30.75;;;;;21.29;64.22;101365.84;4914985;28;45326;-77
2021/09/04 00:34:25;;;;;;;;;43.25;35.00;;;;;21.23;64.22;101348.44;4909095;28;45345;-77
2021/09/04 00:36:51;;;;;;;;;45.75;35.75;;;;;21.23;64.15;101356.47;4908957;28;45337;-77
2021/09/04 00:39:16;;;;;;;;;39.75;34.00;;;;;21.18;64.59;101345.22;4921594;28;45328;-78
2021/09/04 00:41:42;;;;;;;;;43.00;35.50;;;;;21.13;64.38;101340.19;4913837;28;45423;-78
2021/09/04 00:44:13;;;;;;;;;47.25;38.75;;;;;21.16;64.53;101353.34;4916910;28;45417;-78
2021/09/04 00:46:39;;;;;;;;;49.00;40.25;;;;;21.11;64.28;101345.63;4919708;28;45213;-79
2021/09/04 00:49:04;;;;;;;;;47.25;37.75;;;;;21.05;64.22;101339.84;4924349;28;45378;-79
2021/09/04 00:51:29;;;;;;;;;44.50;36.25;;;;;21.04;64.87;101349.69;4923422;28;46148;-76
2021/09/04 00:53:55;;;;;;;;;50.75;39.00;;;;;21.00;64.92;101348.16;4915607;28;46492;-75
2021/09/04 00:56:21;;;;;;;;;47.75;37.25;;;;;20.92;64.97;101349.53;4893105;28;45957;-87
2021/09/04 00:58:47;;;;;;;;;51.25;41.00;;;;;20.90;65.32;101348.78;4924791;28;45440;-86
2021/09/04 01:01:12;;;;;;;;;48.75;40.75;;;;;20.90;65.12;101348.78;4922892;28;45580;-86
2021/09/04 01:03:38;;;;;;;;;50.75;42.75;;;;;20.90;65.11;101356.81;4918483;28;46273;-84
2021/09/04 01:06:03;;;;;;;;;51.75;41.25;;;;;20.86;65.48;101344.63;4912461;28;45425;-85
2021/09/04 01:08:30;;;;;;;;;49.25;40.75;;;;;20.87;65.55;101350.78;4911526;28;45497;-85
2021/09/04 01:10:55;;;;;;;;;55.75;44.00;;;;;20.83;65.17;101352.84;4924478;28;45225;-85
2021/09/04 01:13:21;;;;;;;;;48.75;37.75;;;;;20.78;65.40;101346.94;4920267;28;45249;-85
2021/09/04 01:15:47;;;;;;;;;51.00;41.00;;;;;20.77;65.36;101353.22;4914988;28;45296;-85
2021/09/04 01:18:13;;;;;;;;;50.75;40.50;;;;;20.78;65.70;101357.63;4924229;28;45420;-85
2021/09/04 01:20:39;;;;;;;;;54.00;42.50;;;;;;;;4915344;28;45319;-85
2021/09/04 01:23:05;;;;;;;;;47.75;37.75;;;;;20.78;65.54;101353.16;4917455;28;46346;-85
2021/09/04 01:25:31;;;;;;;;;49.25;41.25;;;;;20.75;65.38;101350.69;4923700;28;45539;-83
2021/09/04 01:27:59;;;;;;;;;53.00;42.50;;;;;20.74;66.27;101348.94;4924362;28;45450;-83
2021/09/04 01:30:26;;;;;;;;;51.50;42.50;;;;;20.68;65.69;101350.22;4924219;28;45411;-82
2021/09/04 01:32:52;;;;;;;;;52.25;39.75;;;;;20.67;65.74;101345.84;4923883;28;45300;-85
2021/09/04 01:35:23;;;;;;;;;52.50;42.00;;;;;20.72;65.45;101353.53;4920361;28;45775;-85
2021/09/04 01:37:48;;;;;;;;;49.50;40.75;;;;;20.74;65.58;101351.63;4896107;28;45495;-85
2021/09/04 01:40:15;;;;;;;;;48.00;39.25;;;;;20.68;65.93;101344.03;4924004;28;45335;-84
2021/09/04 01:42:41;;;;;;;;;53.00;40.00;;;;;20.71;66.28;101348.31;4906756;28;47531;-82
2021/09/04 01:45:08;;;;;;;;;49.25;40.00;;;;;20.66;65.82;101346.81;4924098;28;45903;-82
2021/09/04 01:47:33;;;;;;;;;46.25;37.50;;;;;20.66;66.01;101341.47;4921884;28;45193;-87
2021/09/04 01:49:59;;;;;;;;;46.00;37.75;;;;;20.71;65.93;101356.31;4922511;28;45463;-87
2021/09/04 01:52:24;;;;;;;;;48.50;38.75;;;;;20.65;66.36;101347.75;4923762;28;46573;-86
2021/09/04 01:54:51;;;;;;;;;51.00;37.75;;;;;20.68;66.07;101354.72;4923671;28;45352;-88
2021/09/04 01:57:17;;;;;;;;;48.75;35.00;;;;;20.65;66.33;101350.44;4905224;28;45350;-88
2021/09/04 01:59:43;;;;;;;;;38.00;33.50;;;;;20.64;66.49;101359.38;4918268;28;45403;-87
2021/09/04 02:02:08;;;;;;;;;39.50;34.00;;;;;20.63;66.10;101348.81;4897298;28;47999;-79
2021/09/04 02:04:34;;;;;;;;;31.75;30.25;;;;;20.60;65.71;101347.22;4917098;28;45430;-80
2021/09/04 02:07:03;;;;;;;;;41.50;35.50;;;;;20.67;66.06;101347.66;4917640;28;45486;-83
2021/09/04 02:09:29;;;;;;;;;34.75;33.25;;;;;20.69;65.78;101340.41;4923875;28;45271;-83
2021/09/04 02:11:54;;;;;;;;;36.50;32.50;;;;;20.70;65.56;101342.09;4916206;28;48302;-82
2021/09/04 02:14:20;;;;;;;;;32.75;28.50;;;;;20.64;66.04;101331.84;4900019;28;45382;-82
2021/09/04 02:16:45;;;;;;;;;33.75;28.75;;;;;20.65;65.73;101334.41;4921184;28;45345;-77
2021/09/04 02:19:11;;;;;;;;;35.25;28.50;;;;;20.64;65.64;101334.53;4922937;28;45358;-77
2021/09/04 02:21:36;;;;;;;;;29.50;27.75;;;;;20.65;65.92;101339.75;4923394;28;45376;-77
2021/09/04 02:24:02;;;;;;;;;34.25;28.75;;;;;20.67;65.66;101332.47;4917124;28;45267;-77
2021/09/04 02:26:27;;;;;;;;;29.75;27.75;;;;;20.68;65.65;101333.34;4914433;28;45496;-77
2021/09/04 02:28:54;;;;;;;;;31.25;31.00;;;;;20.64;65.78;101327.34;4923101;28;45308;-77
2021/09/04 02:31:23;;;;;;;;;27.00;24.50;;;;;20.65;65.68;101333.53;4923329;28;46265;-78
2021/09/04 02:33:49;;;;;;;;;28.75;27.50;;;;;20.65;65.48;101334.41;4922903;28;45275;-77
2021/09/04 02:36:14;;;;;;;;;29.50;27.75;;;;;20.66;65.48;101327.25;4914525;28;45474;-77
2021/09/04 02:38:40;;;;;;;;;32.25;28.50;;;;;20.63;65.72;101322.97;4920363;28;45338;-77
2021/09/04 02:41:05;;;;;;;;;33.25;28.00;;;;;20.69;65.72;101341.25;4921906;28;46232;-77
2021/09/04 02:43:30;;;;;;;;;30.00;27.50;;;;;20.65;65.66;101331.75;4921932;28;45426;-77
2021/09/04 02:45:56;;;;;;;;;29.50;29.50;;;;;20.62;65.54;101329.25;4923064;28;45594;-77
2021/09/04 02:48:21;;;;;;;;;30.00;27.25;;;;;20.62;65.93;101339.94;4913600;28;45338;-77
2021/09/04 02:50:47;;;;;;;;;31.50;28.25;;;;;20.62;65.67;101337.28;4917678;28;45374;-77
2021/09/04 02:53:12;;;;;;;;;32.25;28.75;;;;;20.62;65.87;101334.59;4922489;28;45582;-77
2021/09/04 02:55:37;;;;;;;;;30.50;27.00;;;;;20.63;65.72;101331.00;4923134;28;45255;-78
2021/09/04 02:58:03;;;;;;;;;26.75;25.75;;;;;20.66;65.81;101343.28;4922984;28;45419;-78
2021/09/04 03:00:29;;;;;;;;;26.25;22.75;;;;;20.62;65.88;101337.28;4911633;28;45696;-78
2021/09/04 03:02:54;;;;;;;;;35.00;27.00;;;;;20.61;65.83;101335.59;4922446;28;45418;-78
2021/09/04 03:05:20;;;;;;;;;28.25;28.00;;;;;20.66;65.74;101338.81;4922818;28;45245;-79
2021/09/04 03:07:45;;;;;;;;;27.50;24.75;;;;;20.67;66.10;101343.16;4922619;28;45315;-80
2021/09/04 03:10:11;;;;;;;;;27.50;23.75;;;;;20.67;65.96;101345.84;4921897;28;45317;-79
2021/09/04 03:12:37;;;;;;;;;32.25;28.75;;;;;20.66;65.90;101343.28;4921314;28;45629;-79
2021/09/04 03:15:03;;;;;;;;;30.75;28.25;;;;;20.66;66.01;101340.63;4910229;28;45241;-76
2021/09/04 03:17:28;;;;;;;;;32.00;28.25;;;;;20.66;65.91;101341.47;4901483;28;45650;-76
2021/09/04 03:19:53;;;;;;;;;29.75;27.75;;;;;20.65;65.56;101337.09;4904757;28;47084;-78
2021/09/04 03:22:19;;;;;;;;;28.50;26.50;;;;;20.63;65.94;101340.81;4922513;28;45443;-76
2021/09/04 03:24:44;;;;;;;;;28.00;24.25;;;;;20.61;65.66;101332.06;4910123;28;45839;-76
2021/09/04 03:27:09;;;;;;;;;32.75;29.00;;;;;20.61;66.25;101332.91;4922457;28;45479;-79
2021/09/04 03:29:35;;;;;;;;;28.75;28.00;;;;;20.62;65.73;101331.94;4922372;28;45447;-80
2021/09/04 03:32:01;;;;;;;;;29.25;22.75;;;;;20.61;66.03;101337.38;4920117;28;46512;-77
2021/09/04 03:34:26;;;;;;;;;30.00;27.50;;;;;20.62;66.43;101333.78;4919034;28;45295;-76
2021/09/04 03:36:51;;;;;;;;;24.75;24.75;;;;;20.57;66.21;101320.69;4909843;28;45505;-77
2021/09/04 03:39:17;;;;;;;;;27.75;26.00;;;;;20.60;66.73;101333.84;4922296;28;45438;-77
2021/09/04 03:41:42;;;;;;;;;28.75;24.75;;;;;20.61;66.19;101340.06;4922077;28;45449;-77
2021/09/04 03:44:07;;;;;;;;;27.75;26.75;;;;;20.61;66.31;101343.59;4912500;28;45494;-77
2021/09/04 03:46:33;;;;;;;;;29.25;26.25;;;;;20.60;66.71;101331.19;4919175;28;45485;-77
2021/09/04 03:49:00;;;;;;;;;25.50;24.00;;;;;20.60;66.91;101335.66;4921830;28;45599;-77
2021/09/04 03:51:27;;;;;;;;;25.00;22.25;;;;;20.61;66.58;101340.91;4921360;28;45181;-79
2021/09/04 03:53:52;;;;;;;;;28.00;26.00;;;;;20.59;66.38;101342.84;4922387;28;45284;-79
2021/09/04 03:56:18;;;;;;;;;21.25;21.25;;;;;20.62;66.87;101339.94;4920201;28;45252;-79
2021/09/04 03:58:43;;;;;;;;;33.00;27.50;;;;;20.61;66.76;101332.91;4911615;28;46545;-79
2021/09/04 04:01:08;;;;;;;;;38.00;32.50;;;;;20.60;66.07;101330.31;4922038;28;45212;-75
2021/09/04 04:03:34;;;;;;;;;35.00;30.50;;;;;20.59;65.71;101321.47;4921945;28;45225;-75
2021/09/04 04:05:59;;;;;;;;;36.00;30.25;;;;;20.62;66.14;101328.44;4921954;28;45345;-79
2021/09/04 04:08:25;;;;;;;;;32.50;29.75;;;;;20.63;65.69;101322.13;4918711;28;45425;-77
2021/09/04 04:10:50;;;;;;;;;30.50;29.25;;;;;20.64;65.36;101321.16;4903586;28;45435;-79
2021/09/04 04:13:15;;;;;;;;;29.50;28.00;;;;;20.66;65.63;101317.44;4913892;28;45442;-79
2021/09/04 04:15:41;;;;;;;;;29.25;27.75;;;;;20.67;65.58;101312.94;4913748;28;45407;-81
2021/09/04 04:18:06;;;;;;;;;31.25;28.25;;;;;20.67;65.54;101311.13;4920900;28;45359;-81
2021/09/04 04:20:32;;;;;;;;;34.75;31.50;;;;;20.67;65.34;101321.81;4909297;28;45260;-82
2021/09/04 04:22:57;;;;;;;;;30.25;29.50;;;;;20.69;65.13;101308.38;4925086;28;45996;-81
2021/09/04 04:25:22;;;;;;;;;39.50;32.00;;;;;20.73;65.20;101315.22;4924942;28;45551;-81
2021/09/04 04:27:48;;;;;;;;;33.50;31.50;;;;;20.70;65.14;101310.06;4925344;28;45638;-85
2021/09/04 04:30:13;;;;;;;;;32.00;29.50;;;;;20.73;65.02;101309.00;4909984;28;45463;-84
2021/09/04 04:32:39;;;;;;;;;31.00;29.00;;;;;20.74;65.22;101316.06;4910997;28;45410;-81
2021/09/04 04:35:04;;;;;;;;;34.50;30.25;;;;;20.73;65.41;101314.34;4924768;28;45566;-81
2021/09/04 04:37:30;;;;;;;;;33.75;30.75;;;;;20.70;65.11;101315.41;4924975;28;46187;-77
2021/09/04 04:39:55;;;;;;;;;39.75;31.50;;;;;20.71;64.96;101313.59;4924825;28;45260;-79
2021/09/04 04:42:20;;;;;;;;;36.00;31.75;;;;;20.73;65.05;101317.00;4921604;28;45306;-81
2021/09/04 04:44:46;;;;;;;;;35.25;28.25;;;;;20.75;65.24;101320.44;4922119;28;45145;-79
2021/09/04 04:47:11;;;;;;;;;30.75;28.50;;;;;20.74;65.18;101311.56;4924464;28;45418;-79
2021/09/04 04:49:36;;;;;;;;;33.25;31.25;;;;;20.74;65.07;101316.91;4924416;28;45293;-77
2021/09/04 04:52:02;;;;;;;;;31.50;29.00;;;;;20.78;65.14;101322.91;4924933;28;45253;-77
2021/09/04 04:54:27;;;;;;;;;33.25;28.25;;;;;20.78;65.61;101323.75;4919546;28;45498;-76
2021/09/04 04:56:53;;;;;;;;;31.75;30.25;;;;;20.75;65.54;101328.44;4924589;28;45263;-76
2021/09/04 04:59:18;;;;;;;;;36.00;29.75;;;;;20.74;66.03;101319.56;4924617;28;45248;-76
2021/09/04 05:01:44;;;;;;;;;33.75;31.25;;;;;20.73;65.61;101330.38;4918131;28;45241;-76
2021/09/04 05:04:09;;;;;;;;;28.25;27.00;;;;;20.73;65.79;101327.69;4908042;28;45296;-77
2021/09/04 05:06:34;;;;;;;;;35.00;31.50;;;;;20.73;65.89;101327.69;4924713;28;46337;-77
2021/09/04 05:09:00;;;;;;;;;41.00;32.00;;;;;20.74;66.97;101334.75;4924377;28;45450;-77
2021/09/04 05:11:26;;;;;;;;;34.75;32.25;;;;;20.73;67.30;101335.72;4922638;28;45229;-76
2021/09/04 05:13:51;;;;;;;;;35.25;32.00;;;;;20.71;67.77;101333.16;4921955;28;45572;-76
2021/09/04 05:16:16;;;;;;;;;34.25;30.50;;;;;20.68;68.22;101339.56;4924049;28;46440;-76
2021/09/04 05:18:42;;;;;;;;;35.25;30.75;;;;;20.63;68.52;101333.66;4922896;28;45503;-74
2021/09/04 05:21:08;;;;;;;;;36.00;32.25;;;;;20.62;69.28;101334.59;4924720;28;45371;-74
2021/09/04 05:23:33;;;;;;;;;34.00;31.25;;;;;20.60;69.11;101338.34;4924111;28;45604;-73
2021/09/04 05:25:59;;;;;;;;;39.75;31.00;;;;;20.59;69.33;101345.50;4922893;28;47804;-75
2021/09/04 05:28:24;;;;;;;;;36.00;32.00;;;;;20.62;69.09;101333.78;4917983;28;45537;-75
2021/09/04 05:30:50;;;;;;;;;35.25;32.00;;;;;20.62;69.40;101339.13;4900848;28;45428;-76
2021/09/04 05:33:15;;;;;;;;;39.50;34.00;;;;;20.57;69.52;101334.06;4921126;28;45157;-76
2021/09/04 05:35:42;;;;;;;;;30.75;29.75;;;;;20.58;69.82;101339.31;4923852;28;45300;-75
2021/09/04 05:38:07;;;;;;;;;30.75;29.25;;;;;20.58;70.57;101333.09;4917260;28;45262;-75
2021/09/04 05:40:33;;;;;;;;;33.75;30.75;;;;;20.62;70.47;101344.44;4924084;28;45519;-76
2021/09/04 05:42:58;;;;;;;;;31.75;30.75;;;;;20.62;71.26;101341.78;4924081;28;45455;-75
2021/09/04 05:45:23;;;;;;;;;35.50;31.25;;;;;20.62;71.03;101349.78;4923735;28;46291;-75
2021/09/04 05:47:49;;;;;;;;;30.50;29.75;;;;;20.61;71.26;101353.41;4920839;28;45280;-75
2021/09/04 05:50:14;;;;;;;;;33.75;29.75;;;;;20.60;71.58;101352.56;4923646;28;45208;-76
2021/09/04 05:52:39;;;;;;;;;33.00;32.00;;;;;20.54;71.36;101345.81;4923881;28;45501;-75
2021/09/04 05:55:05;;;;;;;;;32.75;29.25;;;;;20.55;71.68;101354.66;4923926;28;46329;-76
2021/09/04 05:57:30;;;;;;;;;44.25;32.00;;;;;20.55;71.68;101360.00;4923807;28;45434;-75
2021/09/04 05:59:56;;;;;;;;;38.25;33.00;;;;;20.56;71.57;101364.41;4918475;28;45556;-76
2021/09/04 06:02:21;;;;;;;;;39.25;33.25;;;;;20.52;71.40;101361.06;4923237;28;45300;-76
2021/09/04 06:04:46;;;;;;;;;41.50;34.50;;;;;20.52;72.08;101369.06;4923305;28;45650;-76
2021/09/04 06:07:12;;;;;;;;;34.25;31.25;;;;;20.50;71.96;101367.44;4920908;28;45391;-75
2021/09/04 06:09:37;;;;;;;;;38.25;31.50;;;;;20.45;72.55;101371.28;4914175;28;45351;-75
2021/09/04 06:12:02;;;;;;;;;29.50;29.00;;;;;20.42;72.45;101379.50;4920661;28;47499;-76
2021/09/04 06:14:28;;;;;;;;;42.00;33.25;;;;;20.39;72.92;101376.19;4923519;28;45611;-79
2021/09/04 06:16:55;;;;;;;;;40.50;33.25;;;;;20.35;72.99;101378.19;4921966;28;45914;-78
2021/09/04 06:19:21;;;;;;;;;37.50;32.00;;;;;20.31;72.77;101380.22;4913337;28;45276;-78
2021/09/04 06:21:47;;;;;;;;;43.25;33.75;;;;;20.30;72.76;101375.81;4904419;28;47013;-76
2021/09/04 06:24:12;;;;;;;;;33.75;31.50;;;;;20.30;73.62;101377.63;4918078;28;45343;-78
2021/09/04 06:26:37;;;;;;;;;37.25;33.50;;;;;20.27;72.77;101372.50;4914672;28;45436;-80
2021/09/04 06:29:03;;;;;;;;;36.75;33.00;;;;;20.26;72.90;101370.78;4917794;28;45471;-81
2021/09/04 06:31:28;;;;;;;;;38.50;31.00;;;;;20.27;73.54;101367.16;4915298;28;45426;-83
2021/09/04 06:33:53;;;;;;;;;38.25;32.25;;;;;20.29;74.06;101373.25;4919469;28;45476;-79
2021/09/04 06:36:19;;;;;;;;;34.50;31.25;;;;;20.23;73.18;101370.03;4921434;28;45616;-80
2021/09/04 06:38:44;;;;;;;;;36.50;31.75;;;;;20.27;73.27;101369.84;4921961;28;45448;-79
2021/09/04 06:41:10;;;;;;;;;38.75;34.00;;;;;20.28;73.01;101371.53;4904563;28;47326;-80
2021/09/04 06:43:37;;;;;;;;;38.25;33.25;;;;;20.31;73.63;101371.34;4921612;28;45414;-80
2021/09/04 06:46:02;;;;;;;;;38.00;32.50;;;;;20.34;73.80;101376.47;4917113;28;45458;-81
2021/09/04 06:48:28;;;;;;;;;43.00;36.25;;;;;20.33;73.71;101377.44;4919237;28;45446;-80
2021/09/04 06:50:53;;;;;;;;;36.25;33.00;;;;;20.35;73.89;101375.50;4917637;28;45474;-81
2021/09/04 06:53:18;;;;;;;;;39.50;33.25;;;;;20.36;73.31;101377.25;4911658;28;45383;-83
2021/09/04 06:55:44;;;;;;;;;38.75;32.00;;;;;20.40;73.83;101378.75;4897856;28;45266;-81
2021/09/04 06:58:09;;;;;;;;;35.75;32.00;;;;;20.40;73.66;101378.75;4920358;28;45331;-75
2021/09/04 07:00:34;;;;;;;;;33.25;32.00;;;;;20.44;73.40;101385.63;4921746;28;45632;-76
2021/09/04 07:03:00;;;;;;;;;36.25;32.00;;;;;20.44;73.57;101374.94;4918628;28;46317;-76
2021/09/04 07:05:25;;;;;;;;;39.25;33.50;;;;;20.46;73.72;101378.34;4904477;28;45460;-76
2021/09/04 07:07:50;;;;;;;;;39.25;31.25;;;;;20.51;73.06;101379.88;4922783;28;45228;-76
2021/09/04 07:10:16;;;;;;;;;40.75;35.50;;;;;20.49;73.08;101373.78;4922764;28;45483;-76
2021/09/04 07:12:41;;;;;;;;;33.25;31.25;;;;;20.55;73.18;101384.91;4921802;28;45402;-76
2021/09/04 07:15:07;;;;;;;;;36.00;33.75;;;;;20.57;73.21;101380.31;4922728;28;45405;-76
2021/09/04 07:17:33;;;;;;;;;37.00;31.00;;;;;20.61;73.05;101378.31;4921051;28;45201;-76
2021/09/04 07:19:58;;;;;;;;;38.50;33.25;;;;;20.66;72.88;101375.34;4918550;28;45509;-76
2021/09/04 07:22:23;;;;;;;;;39.75;31.25;;;;;20.72;72.93;101374.91;4904921;28;47250;-76
2021/09/04 07:24:49;;;;;;;;;42.75;34.50;;;;;20.77;73.67;101370.13;4903267;28;45731;-76
2021/09/04 07:27:14;;;;;;;;;35.75;33.00;;;;;20.82;72.72;101372.47;4905175;28;45462;-76
2021/09/04 07:29:40;;;;;;;;;39.25;34.00;;;;;20.86;73.15;101376.69;4920008;28;47491;-76
2021/09/04 07:32:05;;;;;;;;;38.50;34.25;;;;;20.93;74.02;101379.78;4915182;28;45502;-76
2021/09/04 07:34:31;;;;;;;;;37.75;33.50;;;;;20.96;72.71;101386.75;4888797;28;45365;-76
2021/09/04 07:36:56;;;;;;;;;40.25;34.25;;;;;21.01;73.16;101387.31;4911953;28;45384;-76
2021/09/04 07:39:21;;;;;;;;;35.75;32.75;;;;;21.07;72.58;101388.69;4901245;28;47372;-76
2021/09/04 07:41:47;;;;;;;;;43.25;34.50;;;;;21.09;72.74;101392.13;4911180;28;45417;-76
2021/09/04 07:44:12;;;;;;;;;41.25;36.25;;;;;21.11;72.41;101382.22;4919581;28;45246;-76
2021/09/04 07:46:37;;;;;;;;;41.25;34.75;;;;;21.14;72.60;101388.19;4919092;28;45296;-76
2021/09/04 07:49:03;;;;;;;;;37.50;34.25;;;;;21.20;72.52;101386.06;4916702;28;45466;-76
2021/09/04 07:51:28;;;;;;;;;34.25;27.50;;;;;21.22;71.24;101390.34;4899410;28;46973;-76
2021/09/04 07:53:53;;;;;;;;;42.25;36.25;;;;;21.31;71.16;101390.69;4920117;28;45411;-76
2021/09/04 07:56:19;;;;;;;;;32.25;28.00;;;;;21.40;70.58;101386.50;4913579;28;45433;-76
2021/09/04 07:58:44;;;;;;;;;46.25;36.00;;;;;21.50;71.30;101392.94;4920562;28;45335;-76
2021/09/04 08:01:09;;;;;;;;;39.75;34.50;;;;;21.56;71.93;101384.47;4922044;28;45507;-76
2021/09/04 08:03:35;;;;;;;;;36.25;32.00;;;;;21.66;71.52;101386.50;4902812;28;45233;-76
2021/09/04 08:06:00;;;;;;;;;37.50;32.25;;;;;21.71;71.37;101389.69;4903536;28;45278;-75
2021/09/04 08:08:26;;;;;;;;;35.50;32.50;;;;;21.74;71.46;101384.16;4911503;28;45293;-76
2021/09/04 08:10:51;;;;;;;;;38.75;34.25;;;;;21.76;70.93;101384.88;4910157;28;45481;-75
2021/09/04 08:13:17;;;;;;;;;31.50;30.50;;;;;21.80;71.32;101391.72;4921042;28;45829;-76
2021/09/04 08:15:42;;;;;;;;;34.00;31.50;;;;;21.76;69.79;101379.53;4920361;28;45529;-77
2021/09/04 08:18:07;;;;;;;;;33.25;31.75;;;;;21.80;70.48;101388.22;4920014;28;45418;-75
2021/09/04 08:20:33;;;;;;;;;28.50;26.25;;;;;21.83;70.34;101387.97;4913247;28;48259;-77
2021/09/04 08:22:59;;;;;;;;;34.50;30.00;;;;;21.83;70.39;101387.16;4916832;28;45486;-76
2021/09/04 08:25:24;;;;;;;;;25.50;22.50;;;;;21.81;69.53;101389.91;4915838;28;45470;-76
2021/09/04 08:27:50;;;;;;;;;27.75;27.75;;;;;21.77;69.65;101386.63;4920004;28;45601;-76
2021/09/04 08:30:15;;;;;;;;;33.75;30.00;;;;;21.73;69.50;101389.63;4921712;28;46276;-76
2021/09/04 08:32:41;;;;;;;;;36.50;29.00;;;;;21.70;69.83;101394.19;4916713;28;45530;-76
2021/09/04 08:35:07;;;;;;;;;28.25;28.25;;;;;21.73;69.62;101393.13;4921370;28;45307;-76
2021/09/04 08:37:32;;;;;;;;;33.00;28.50;;;;;21.72;70.16;101402.13;4919186;28;47240;-75
2021/09/04 08:39:58;;;;;;;;;31.50;28.75;;;;;21.75;69.93;101406.41;4920901;28;45487;-77
2021/09/04 08:42:24;;;;;;;;;37.00;28.75;;;;;21.74;70.38;101405.53;4900205;28;45264;-77
2021/09/04 08:44:49;;;;;;;;;37.00;31.25;;;;;21.73;70.12;101408.34;4901960;28;45492;-77
2021/09/04 08:47:18;;;;;;;;;37.50;31.50;;;;;21.75;71.03;101406.41;4908579;28;45464;-77
2021/09/04 08:49:46;;;;;;;;;30.25;25.50;;;;;21.78;70.20;101408.88;4920555;28;45419;-77
2021/09/04 08:52:12;;;;;;;;;29.25;28.25;;;;;21.81;70.42;101412.19;4912951;28;45690;-77
2021/09/04 08:54:37;;;;;;;;;31.75;29.25;;;;;21.84;70.04;101415.59;4909791;28;46823;-77
2021/09/04 08:57:03;;;;;;;;;32.50;30.25;;;;;21.81;69.95;101414.84;4902682;28;47079;-77
2021/09/04 08:59:28;;;;;;;;;33.25;28.25;;;;;21.86;70.69;101417.22;4918777;28;45311;-77
2021/09/04 09:01:54;;;;;;;;;31.00;29.25;;;;;21.86;70.04;101419.00;4918274;28;45435;-77
2021/09/04 09:04:22;;;;;;;;;30.00;29.50;;;;;21.90;70.36;101421.38;4913662;28;45333;-77
2021/09/04 09:06:48;;;;;;;;;30.00;25.75;;;;;21.91;69.89;101423.13;4903374;28;46286;-77
2021/09/04 09:09:25;;;;;;;;;30.25;25.25;;;;;21.95;69.47;101423.75;4923218;28;45571;-77
2021/09/04 09:11:53;;;;;;;;;24.75;24.50;;;;;21.99;69.89;101424.38;4923637;28;45276;-77
2021/09/04 09:14:20;;;;;;;;;29.00;27.00;;;;;22.06;70.23;101424.78;4919232;28;45262;-77
2021/09/04 09:16:50;;;;;;;;;23.25;20.75;;;;;22.12;69.53;101430.59;4913326;28;46970;-77
2021/09/04 09:19:16;;;;;;;;;29.00;25.25;;;;;22.17;69.54;101426.72;4924271;28;45505;-77
2021/09/04 09:21:42;;;;;;;;;33.75;30.50;;;;;22.25;69.78;101435.91;4924741;28;45353;-77
2021/09/04 09:24:18;;;;;;;;;28.25;25.50;;;;;22.32;70.13;101432.78;4924532;28;45326;-77
2021/09/04 09:27:02;;;;;;;;;31.75;26.50;;;;;22.35;69.20;101425.38;4924494;28;45342;-77
2021/09/04 09:29:32;;;;;;;;;24.50;22.00;;;;;22.43;68.60;101429.31;4924322;28;45445;-77
2021/09/04 09:32:04;;;;;;;;;29.00;24.75;;;;;22.51;69.42;101440.34;4923952;28;45569;-77
2021/09/04 09:34:35;;;;;;;;;26.00;23.25;;;;;22.57;68.90;101431.84;4924412;28;45299;-77
2021/09/04 09:37:01;;;;;;;;;23.00;22.25;;;;;22.63;68.05;101432.34;4923181;28;45657;-78
2021/09/04 09:39:32;;;;;;;;;21.50;20.50;;;;;22.67;68.17;101433.81;4915697;28;45648;-77
2021/09/04 09:41:59;;;;;;;;;25.25;20.50;;;;;22.73;67.25;101435.22;4924299;28;45424;-77
2021/09/04 09:44:27;;;;;;;;;25.00;19.50;;;;;22.76;66.05;101430.53;4924154;28;45233;-77
2021/09/04 09:46:55;;;;;;;;;20.00;18.00;;;;;22.83;65.98;101428.22;4923821;28;45494;-77
2021/09/04 09:49:44;;;;;;;;;20.00;16.00;;;;;22.89;66.25;101425.06;4915193;28;45418;-77
2021/09/04 09:52:12;;;;;;;;;18.75;16.25;;;;;22.93;65.82;101428.38;4916495;28;45611;-77
2021/09/04 09:54:39;;;;;;;;;16.25;15.25;;;;;23.00;65.27;101424.28;4905284;28;45323;-78
2021/09/04 09:57:07;;;;;;;;;13.50;12.75;;;;;23.06;64.71;101424.78;4906765;28;46081;-77
2021/09/04 09:59:33;;;;;;;;;20.50;16.50;;;;;23.11;64.43;101425.28;4906546;28;48369;-77
2021/09/04 10:02:04;;;;;;;;;13.50;11.75;;;;;23.20;64.76;101416.53;4906526;28;45274;-78
2021/09/04 10:04:32;;;;;;;;;14.25;14.25;;;;;23.27;64.84;101412.41;4913680;28;45354;-77
2021/09/04 10:06:57;;;;;;;;;15.75;12.75;;;;;23.35;63.73;101406.47;4917144;28;45479;-78
2021/09/04 10:09:26;;;;;;;;;13.00;13.00;;;;;23.41;63.59;101405.13;4920119;28;46235;-78
2021/09/04 10:11:52;;;;;;;;;14.75;12.00;;;;;23.46;63.34;101407.44;4922585;28;45480;-77
2021/09/04 10:14:18;;;;;;;;;15.00;13.75;;;;;23.45;63.58;101406.59;4922657;28;45264;-77
2021/09/04 10:16:45;;;;;;;;;19.25;15.50;;;;;23.38;63.32;101400.84;4923347;28;45564;-77
2021/09/04 10:19:12;;;;;;;;;12.25;12.25;;;;;23.36;63.27;101402.78;4905686;28;47030;-77
2021/09/04 10:21:39;;;;;;;;;15.00;13.75;;;;;23.44;63.39;101414.75;4923628;28;45185;-77
2021/09/04 10:24:07;;;;;;;;;15.25;13.75;;;;;23.46;63.87;101410.97;4922773;28;45444;-77
2021/09/04 10:26:32;;;;;;;;;15.25;14.75;;;;;23.46;63.26;101410.97;4913194;28;45526;-77
2021/09/04 10:29:10;;;;;;;;;16.00;15.00;;;;;23.45;62.89;101413.78;4922023;28;45476;-77
2021/09/04 10:31:57;;;;;;;;;9.75;9.75;;;;;23.48;63.00;101408.19;4923184;28;45268;-77
2021/09/04 10:34:30;;;;;;;;;14.50;13.75;;;;;23.47;63.07;101412.69;4921489;28;45529;-77
2021/09/04 10:37:15;;;;;;;;;13.00;13.00;;;;;23.34;62.74;101412.78;4911936;28;45665;-77
2021/09/04 10:39:48;;;;;;;;;10.00;9.25;;;;;23.22;62.62;101400.31;4918444;28;45687;-77
2021/09/04 10:42:16;;;;;;;;;12.25;12.25;;;;;23.10;62.51;101405.66;4914822;28;45486;-77
2021/09/04 10:44:45;;;;;;;;;13.75;10.00;;;;;23.02;62.99;101413.44;4905133;28;45316;-77
2021/09/04 10:47:11;;;;;;;;;11.50;11.00;;;;;23.02;62.84;101405.38;4899518;28;46870;-77
2021/09/04 10:49:45;;;;;;;;;12.25;12.00;;;;;23.03;62.87;101409.78;4916760;28;45321;-77
2021/09/04 10:52:11;;;;;;;;;10.50;10.50;;;;;22.97;62.08;101403.06;4916801;28;45381;-77
2021/09/04 10:54:59;;;;;;;;;12.75;11.75;;;;;22.98;62.42;101403.91;4918908;28;45422;-77
2021/09/04 10:57:26;;;;;;;;;11.00;11.00;;;;;22.92;62.23;101402.56;4919280;28;45261;-77
2021/09/04 11:00:06;;;;;;;;;11.75;11.75;;;;;22.95;62.84;101406.81;4914261;28;46618;-77
2021/09/04 11:02:53;;;;;;;;;9.75;8.75;;;;;22.89;62.92;101403.63;4920795;28;45550;-77
2021/09/04 11:05:24;;;;;;;;;12.50;11.25;;;;;22.96;62.98;101405.88;4922748;28;45387;-77